^^
Saratoga-Weather Station Historical Data
Daily Summary for July 16, 2021 Units:  Both    English   Metric
Daily Weekly Monthly Yearly Custom
  High: Low: Average:
Temperature: 67.8 °F /  19.9 °C 55.4 °F /  13 °C 62.4 °F /  16.9 °C
Dew Point: 61.7 °F /  16.5 °C 53.1 °F /  11.7 °C 56.1 °F /  13.4 °C
Humidity: 94% 60% 81%
Wind Speed: 8.1mph /  13km/h - 1.5mph /  2.4km/h
Wind Gust: 11mph /  17.7km/h - -
Wind- - WSW
Pressure: 30.1 in /  1017.6 hPa 29.9 in /  1012.9 hPa -
Precipitation: 0 in /  0.0 mm    
Historical Graphs
 
 
Tabular Data for July 16, 2021
Time Temperature Dew Point Pressure Wind Wind Speed Wind Gust Humidity Rainfall Rate (Hourly) solar
00:00 63.5 °F /  17.5 °C 61.7 °F /  16.5 °C 29.9in /  1012.9hPa WSW 2mph /  3.2km/h 2mph /  3.2km/h 94% 0in /  0.0mm 0 W/m2
00:05 63.5 °F /  17.5 °C 61.7 °F /  16.5 °C 29.9in /  1012.9hPa WSW 2mph /  3.2km/h 2mph /  3.2km/h 94% 0in /  0.0mm 0 W/m2
00:10 63.3 °F /  17.4 °C 61.5 °F /  16.4 °C 29.9in /  1012.9hPa Calm     94% 0in /  0.0mm 0 W/m2
00:15 63.3 °F /  17.4 °C 61.5 °F /  16.4 °C 29.9in /  1012.9hPa WNW 2mph /  3.2km/h 3mph /  4.8km/h 94% 0in /  0.0mm 0 W/m2
00:20 63.3 °F /  17.4 °C 61.3 °F /  16.3 °C 29.9in /  1013.2hPa West 0.9mph /  1.4km/h 3mph /  4.8km/h 93% 0in /  0.0mm 0 W/m2
00:25 63.1 °F /  17.3 °C 61.2 °F /  16.2 °C 29.9in /  1013.2hPa West 0.9mph /  1.4km/h 4mph /  6.4km/h 93% 0in /  0.0mm 0 W/m2
00:30 63.1 °F /  17.3 °C 61.2 °F /  16.2 °C 29.9in /  1013.2hPa West 2mph /  3.2km/h 4mph /  6.4km/h 93% 0in /  0.0mm 0 W/m2
00:35 63 °F /  17.2 °C 60.6 °F /  15.9 °C 29.9in /  1013.2hPa Calm   2mph /  3.2km/h 92% 0in /  0.0mm 0 W/m2
00:40 63 °F /  17.2 °C 61 °F /  16.1 °C 29.9in /  1013.5hPa West 2mph /  3.2km/h 4mph /  6.4km/h 93% 0in /  0.0mm 0 W/m2
00:45 62.8 °F /  17.1 °C 60.8 °F /  16 °C 29.9in /  1013.2hPa WSW 0.9mph /  1.4km/h 2mph /  3.2km/h 93% 0in /  0.0mm 0 W/m2
00:50 62.6 °F /  17 °C 60.6 °F /  15.9 °C 29.9in /  1013.2hPa Calm   2mph /  3.2km/h 93% 0in /  0.0mm 0 W/m2
00:55 62.6 °F /  17 °C 60.6 °F /  15.9 °C 29.9in /  1013.5hPa West 2mph /  3.2km/h 3mph /  4.8km/h 93% 0in /  0.0mm 0 W/m2
01:00 62.4 °F /  16.9 °C 60.4 °F /  15.8 °C 29.9in /  1013.5hPa Calm   1mph /  1.6km/h 93% 0in /  0.0mm 0 W/m2
01:05 62.4 °F /  16.9 °C 60.4 °F /  15.8 °C 29.9in /  1013.5hPa WSW 0.9mph /  1.4km/h 3mph /  4.8km/h 93% 0in /  0.0mm 0 W/m2
01:10 62.4 °F /  16.9 °C 60.4 °F /  15.8 °C 29.9in /  1013.5hPa WSW 2mph /  3.2km/h 3mph /  4.8km/h 93% 0in /  0.0mm 0 W/m2
01:15 62.2 °F /  16.8 °C 60.3 °F /  15.7 °C 29.9in /  1013.5hPa West 2mph /  3.2km/h 3mph /  4.8km/h 93% 0in /  0.0mm 0 W/m2
01:20 62.2 °F /  16.8 °C 60.3 °F /  15.7 °C 29.9in /  1013.5hPa West 2.9mph /  4.7km/h 4mph /  6.4km/h 93% 0in /  0.0mm 0 W/m2
01:25 62.2 °F /  16.8 °C 60.3 °F /  15.7 °C 29.9in /  1013.5hPa WSW 2mph /  3.2km/h 4mph /  6.4km/h 93% 0in /  0.0mm 0 W/m2
01:30 62.1 °F /  16.7 °C 60.1 °F /  15.6 °C 29.9in /  1013.5hPa West 2.9mph /  4.7km/h 4mph /  6.4km/h 93% 0in /  0.0mm 0 W/m2
01:35 62.1 °F /  16.7 °C 60.1 °F /  15.6 °C 29.9in /  1013.5hPa West 2.9mph /  4.7km/h 6mph /  9.7km/h 93% 0in /  0.0mm 0 W/m2
01:40 62.1 °F /  16.7 °C 60.1 °F /  15.6 °C 29.9in /  1013.5hPa West 2mph /  3.2km/h 4mph /  6.4km/h 93% 0in /  0.0mm 0 W/m2
01:46 61.9 °F /  16.6 °C 59.9 °F /  15.5 °C 29.9in /  1013.5hPa West 4mph /  6.4km/h 6mph /  9.7km/h 93% 0in /  0.0mm 0 W/m2
01:51 61.9 °F /  16.6 °C 59.9 °F /  15.5 °C 29.9in /  1013.5hPa West 2mph /  3.2km/h 5mph /  8km/h 93% 0in /  0.0mm 0 W/m2
01:56 62.1 °F /  16.7 °C 60.1 °F /  15.6 °C 29.9in /  1013.5hPa WSW 0.9mph /  1.4km/h 2mph /  3.2km/h 93% 0in /  0.0mm 0 W/m2
02:01 62.1 °F /  16.7 °C 60.1 °F /  15.6 °C 29.9in /  1013.5hPa WSW 0.9mph /  1.4km/h 5mph /  8km/h 93% 0in /  0.0mm 0 W/m2
02:06 61.9 °F /  16.6 °C 59.9 °F /  15.5 °C 29.9in /  1013.5hPa WSW 2mph /  3.2km/h 4mph /  6.4km/h 93% 0in /  0.0mm 0 W/m2
02:11 61.9 °F /  16.6 °C 59.9 °F /  15.5 °C 29.9in /  1013.5hPa WSW 0.9mph /  1.4km/h 2mph /  3.2km/h 93% 0in /  0.0mm 0 W/m2
02:16 61.7 °F /  16.5 °C 59.7 °F /  15.4 °C 29.9in /  1013.5hPa Calm   2mph /  3.2km/h 93% 0in /  0.0mm 0 W/m2
02:21 61.5 °F /  16.4 °C 59.5 °F /  15.3 °C 29.9in /  1013.9hPa Calm   3mph /  4.8km/h 93% 0in /  0.0mm 0 W/m2
02:26 61.5 °F /  16.4 °C 59.5 °F /  15.3 °C 29.9in /  1013.9hPa Calm     93% 0in /  0.0mm 0 W/m2
02:31 61.3 °F /  16.3 °C 59.4 °F /  15.2 °C 29.9in /  1013.9hPa Calm     93% 0in /  0.0mm 0 W/m2
02:36 61.3 °F /  16.3 °C 59.4 °F /  15.2 °C 29.9in /  1013.9hPa West 2mph /  3.2km/h 2mph /  3.2km/h 93% 0in /  0.0mm 0 W/m2
02:41 61.3 °F /  16.3 °C 59.4 °F /  15.2 °C 29.9in /  1013.9hPa Calm     93% 0in /  0.0mm 0 W/m2
02:46 61.3 °F /  16.3 °C 59.4 °F /  15.2 °C 29.9in /  1013.9hPa Calm     93% 0in /  0.0mm 0 W/m2
02:51 61.3 °F /  16.3 °C 59.4 °F /  15.2 °C 29.9in /  1013.9hPa Calm     93% 0in /  0.0mm 0 W/m2
02:56 61.3 °F /  16.3 °C 59.5 °F /  15.3 °C 29.9in /  1013.9hPa Calm     94% 0in /  0.0mm 0 W/m2
03:01 61.2 °F /  16.2 °C 59.2 °F /  15.1 °C 29.9in /  1013.9hPa Calm   1mph /  1.6km/h 93% 0in /  0.0mm 0 W/m2
03:06 61.2 °F /  16.2 °C 59.2 °F /  15.1 °C 29.9in /  1013.9hPa Calm   1mph /  1.6km/h 93% 0in /  0.0mm 0 W/m2
03:11 61.2 °F /  16.2 °C 59.2 °F /  15.1 °C 29.9in /  1013.9hPa Calm     93% 0in /  0.0mm 0 W/m2
03:16 61.3 °F /  16.3 °C 59.4 °F /  15.2 °C 29.9in /  1013.9hPa Calm     93% 0in /  0.0mm 0 W/m2
03:21 61.3 °F /  16.3 °C 59.4 °F /  15.2 °C 30in /  1014.2hPa Calm     93% 0in /  0.0mm 0 W/m2
03:26 61.3 °F /  16.3 °C 59.4 °F /  15.2 °C 30in /  1014.2hPa Calm     93% 0in /  0.0mm 0 W/m2
03:31 61.2 °F /  16.2 °C 59.2 °F /  15.1 °C 30in /  1014.2hPa Calm   1mph /  1.6km/h 93% 0in /  0.0mm 0 W/m2
03:36 61.2 °F /  16.2 °C 59.2 °F /  15.1 °C 30in /  1014.2hPa West 0.9mph /  1.4km/h 3mph /  4.8km/h 93% 0in /  0.0mm 0 W/m2
03:41 61 °F /  16.1 °C 59 °F /  15 °C 30in /  1014.2hPa West 0.9mph /  1.4km/h 2mph /  3.2km/h 93% 0in /  0.0mm 0 W/m2
03:46 61 °F /  16.1 °C 59 °F /  15 °C 29.9in /  1013.9hPa WSW 0.9mph /  1.4km/h 2mph /  3.2km/h 93% 0in /  0.0mm 0 W/m2
03:51 60.8 °F /  16 °C 58.8 °F /  14.9 °C 29.9in /  1013.9hPa WSW 2mph /  3.2km/h 2mph /  3.2km/h 93% 0in /  0.0mm 0 W/m2
03:56 60.6 °F /  15.9 °C 58.6 °F /  14.8 °C 29.9in /  1013.9hPa WSW 2mph /  3.2km/h 3mph /  4.8km/h 93% 0in /  0.0mm 0 W/m2
04:01 60.6 °F /  15.9 °C 58.6 °F /  14.8 °C 29.9in /  1013.9hPa West 2.9mph /  4.7km/h 3mph /  4.8km/h 93% 0in /  0.0mm 0 W/m2
04:06 60.4 °F /  15.8 °C 58.5 °F /  14.7 °C 29.9in /  1013.9hPa WSW 0.9mph /  1.4km/h 3mph /  4.8km/h 93% 0in /  0.0mm 0 W/m2
04:11 60.4 °F /  15.8 °C 58.5 °F /  14.7 °C 29.9in /  1013.9hPa West 2mph /  3.2km/h 2mph /  3.2km/h 93% 0in /  0.0mm 0 W/m2
04:16 60.3 °F /  15.7 °C 58.3 °F /  14.6 °C 30in /  1014.2hPa WSW 2mph /  3.2km/h 3mph /  4.8km/h 93% 0in /  0.0mm 0 W/m2
04:21 60.3 °F /  15.7 °C 58.3 °F /  14.6 °C 30in /  1014.2hPa West 0.9mph /  1.4km/h 2mph /  3.2km/h 93% 0in /  0.0mm 0 W/m2
04:26 60.3 °F /  15.7 °C 58.3 °F /  14.6 °C 29.9in /  1013.9hPa West 0.9mph /  1.4km/h 3mph /  4.8km/h 93% 0in /  0.0mm 0 W/m2
04:31 60.3 °F /  15.7 °C 58.5 °F /  14.7 °C 29.9in /  1013.9hPa West 0.9mph /  1.4km/h 2mph /  3.2km/h 94% 0in /  0.0mm 0 W/m2
04:36 60.4 °F /  15.8 °C 58.6 °F /  14.8 °C 30in /  1014.2hPa WNW 0.9mph /  1.4km/h 3mph /  4.8km/h 94% 0in /  0.0mm 0 W/m2
04:41 60.4 °F /  15.8 °C 58.6 °F /  14.8 °C 30in /  1014.2hPa WNW 2mph /  3.2km/h 2mph /  3.2km/h 94% 0in /  0.0mm 0 W/m2
04:46 60.4 °F /  15.8 °C 58.6 °F /  14.8 °C 30in /  1014.2hPa WNW 2mph /  3.2km/h 2mph /  3.2km/h 94% 0in /  0.0mm 0 W/m2
04:51 60.4 °F /  15.8 °C 58.6 °F /  14.8 °C 30in /  1014.2hPa West 0.9mph /  1.4km/h 2mph /  3.2km/h 94% 0in /  0.0mm 0 W/m2
04:56 60.4 °F /  15.8 °C 58.6 °F /  14.8 °C 30in /  1014.2hPa West 0.9mph /  1.4km/h 3mph /  4.8km/h 94% 0in /  0.0mm 0 W/m2
05:01 60.4 °F /  15.8 °C 58.6 °F /  14.8 °C 30in /  1014.2hPa WNW 2mph /  3.2km/h 3mph /  4.8km/h 94% 0in /  0.0mm 0 W/m2
05:06 60.4 °F /  15.8 °C 58.5 °F /  14.7 °C 30in /  1014.2hPa West 2mph /  3.2km/h 3mph /  4.8km/h 93% 0in /  0.0mm 0 W/m2
05:11 60.4 °F /  15.8 °C 58.5 °F /  14.7 °C 30in /  1014.2hPa WNW 2mph /  3.2km/h 3mph /  4.8km/h 93% 0in /  0.0mm 0 W/m2
05:16 60.6 °F /  15.9 °C 58.6 °F /  14.8 °C 30in /  1014.2hPa WNW 2.9mph /  4.7km/h 4mph /  6.4km/h 93% 0in /  0.0mm 0 W/m2
05:21 60.6 °F /  15.9 °C 58.6 °F /  14.8 °C 30in /  1014.2hPa West 2mph /  3.2km/h 2mph /  3.2km/h 93% 0in /  0.0mm 0 W/m2
05:26 60.6 °F /  15.9 °C 58.6 °F /  14.8 °C 30in /  1014.2hPa WSW 0.9mph /  1.4km/h 4mph /  6.4km/h 93% 0in /  0.0mm 0 W/m2
05:31 60.6 °F /  15.9 °C 58.6 °F /  14.8 °C 30in /  1014.2hPa WNW 2.9mph /  4.7km/h 4mph /  6.4km/h 93% 0in /  0.0mm 0 W/m2
05:36 60.6 °F /  15.9 °C 58.6 °F /  14.8 °C 30in /  1014.6hPa West 2mph /  3.2km/h 3mph /  4.8km/h 93% 0in /  0.0mm 0 W/m2
05:41 60.6 °F /  15.9 °C 58.6 °F /  14.8 °C 30in /  1014.2hPa West 2mph /  3.2km/h 4mph /  6.4km/h 93% 0in /  0.0mm 0 W/m2
05:46 60.6 °F /  15.9 °C 58.6 °F /  14.8 °C 30in /  1014.2hPa WNW 2.9mph /  4.7km/h 3mph /  4.8km/h 93% 0in /  0.0mm 0 W/m2
05:51 60.4 °F /  15.8 °C 58.5 °F /  14.7 °C 30in /  1014.6hPa West 2.9mph /  4.7km/h 3mph /  4.8km/h 93% 0in /  0.0mm 0 W/m2
05:56 60.6 °F /  15.9 °C 58.6 °F /  14.8 °C 30in /  1014.6hPa West 0.9mph /  1.4km/h 2mph /  3.2km/h 93% 0in /  0.0mm 0 W/m2
06:01 60.6 °F /  15.9 °C 58.6 °F /  14.8 °C 30in /  1014.6hPa Calm   1mph /  1.6km/h 93% 0in /  0.0mm 0 W/m2
06:07 60.4 °F /  15.8 °C 58.5 °F /  14.7 °C 30in /  1014.6hPa West 2mph /  3.2km/h 4mph /  6.4km/h 93% 0in /  0.0mm 0 W/m2
06:12 60.4 °F /  15.8 °C 58.5 °F /  14.7 °C 30in /  1014.6hPa WNW 2mph /  3.2km/h 4mph /  6.4km/h 93% 0in /  0.0mm 0 W/m2
06:17 60.4 °F /  15.8 °C 58.5 °F /  14.7 °C 30in /  1014.6hPa West 2mph /  3.2km/h 6mph /  9.7km/h 93% 0in /  0.0mm 0 W/m2
06:22 60.4 °F /  15.8 °C 58.5 °F /  14.7 °C 30in /  1014.6hPa WNW 2.9mph /  4.7km/h 3mph /  4.8km/h 93% 0in /  0.0mm 0 W/m2
06:27 60.4 °F /  15.8 °C 58.5 °F /  14.7 °C 30in /  1014.9hPa West 2mph /  3.2km/h 5mph /  8km/h 93% 0in /  0.0mm 0 W/m2
06:32 60.4 °F /  15.8 °C 58.5 °F /  14.7 °C 30in /  1014.9hPa WNW 2mph /  3.2km/h 4mph /  6.4km/h 93% 0in /  0.0mm 0 W/m2
06:37 60.4 °F /  15.8 °C 58.1 °F /  14.5 °C 30in /  1014.9hPa WNW 2mph /  3.2km/h 4mph /  6.4km/h 92% 0in /  0.0mm 0 W/m2
06:42 60.4 °F /  15.8 °C 58.1 °F /  14.5 °C 30in /  1014.9hPa West 4mph /  6.4km/h 6mph /  9.7km/h 92% 0in /  0.0mm 0 W/m2
06:47 60.3 °F /  15.7 °C 57.4 °F /  14.1 °C 30in /  1014.9hPa NW 2mph /  3.2km/h 4mph /  6.4km/h 90% 0in /  0.0mm 0 W/m2
06:52 60.3 °F /  15.7 °C 57.4 °F /  14.1 °C 30in /  1014.9hPa WNW 2.9mph /  4.7km/h 3mph /  4.8km/h 90% 0in /  0.0mm 0 W/m2
06:57 60.3 °F /  15.7 °C 57.4 °F /  14.1 °C 30in /  1014.9hPa WNW 0.9mph /  1.4km/h 3mph /  4.8km/h 90% 0in /  0.0mm 0 W/m2
07:02 60.1 °F /  15.6 °C 57.2 °F /  14 °C 30in /  1014.9hPa WSW 2.9mph /  4.7km/h 3mph /  4.8km/h 90% 0in /  0.0mm 0 W/m2
07:07 60.1 °F /  15.6 °C 57.2 °F /  14 °C 30in /  1014.9hPa NW 0.9mph /  1.4km/h 4mph /  6.4km/h 90% 0in /  0.0mm 0 W/m2
07:12 59.9 °F /  15.5 °C 57 °F /  13.9 °C 30in /  1015.2hPa WNW 2mph /  3.2km/h 4mph /  6.4km/h 90% 0in /  0.0mm 0 W/m2
07:17 59.7 °F /  15.4 °C 56.8 °F /  13.8 °C 30in /  1015.2hPa West 2mph /  3.2km/h 3mph /  4.8km/h 90% 0in /  0.0mm 0 W/m2
07:22 59.7 °F /  15.4 °C 56.8 °F /  13.8 °C 30in /  1015.2hPa WNW 2.9mph /  4.7km/h 5mph /  8km/h 90% 0in /  0.0mm 0 W/m2
07:27 59.7 °F /  15.4 °C 56.8 °F /  13.8 °C 30in /  1015.2hPa West 2mph /  3.2km/h 3mph /  4.8km/h 90% 0in /  0.0mm 0 W/m2
07:32 59.7 °F /  15.4 °C 56.8 °F /  13.8 °C 30in /  1015.2hPa West 2mph /  3.2km/h 5mph /  8km/h 90% 0in /  0.0mm 5 W/m2
07:37 59.7 °F /  15.4 °C 57 °F /  13.9 °C 30in /  1015.2hPa WNW 4mph /  6.4km/h 4mph /  6.4km/h 91% 0in /  0.0mm 9 W/m2
07:42 59.7 °F /  15.4 °C 57 °F /  13.9 °C 30in /  1015.2hPa NW 0.9mph /  1.4km/h 4mph /  6.4km/h 91% 0in /  0.0mm 12 W/m2
07:47 59.7 °F /  15.4 °C 57 °F /  13.9 °C 30in /  1015.2hPa WSW 0.9mph /  1.4km/h 3mph /  4.8km/h 91% 0in /  0.0mm 16 W/m2
07:52 59.5 °F /  15.3 °C 56.8 °F /  13.8 °C 30in /  1015.2hPa West 2mph /  3.2km/h 5mph /  8km/h 91% 0in /  0.0mm 19 W/m2
07:57 59.5 °F /  15.3 °C 56.7 °F /  13.7 °C 30in /  1015.2hPa WSW 2.9mph /  4.7km/h 7mph /  11.3km/h 90% 0in /  0.0mm 21 W/m2
08:02 59.4 °F /  15.2 °C 56.1 °F /  13.4 °C 30in /  1015.2hPa WSW 4mph /  6.4km/h 4mph /  6.4km/h 89% 0in /  0.0mm 23 W/m2
08:07 59.4 °F /  15.2 °C 56.1 °F /  13.4 °C 30in /  1015.6hPa WNW 2mph /  3.2km/h 7mph /  11.3km/h 89% 0in /  0.0mm 28 W/m2
08:12 59.4 °F /  15.2 °C 56.1 °F /  13.4 °C 30in /  1015.6hPa NW 2.9mph /  4.7km/h 7mph /  11.3km/h 89% 0in /  0.0mm 39 W/m2
08:17 59.2 °F /  15.1 °C 55.9 °F /  13.3 °C 30in /  1015.6hPa WSW 2.9mph /  4.7km/h 6mph /  9.7km/h 89% 0in /  0.0mm 44 W/m2
08:22 59.2 °F /  15.1 °C 55.9 °F /  13.3 °C 30in /  1015.6hPa WNW 0.9mph /  1.4km/h 7mph /  11.3km/h 89% 0in /  0.0mm 46 W/m2
08:27 59.2 °F /  15.1 °C 55.9 °F /  13.3 °C 30in /  1015.6hPa West 2mph /  3.2km/h 3mph /  4.8km/h 89% 0in /  0.0mm 40 W/m2
08:32 58.8 °F /  14.9 °C 55.6 °F /  13.1 °C 30in /  1015.9hPa NW 2mph /  3.2km/h 3mph /  4.8km/h 89% 0in /  0.0mm 35 W/m2
08:37 58.8 °F /  14.9 °C 55.6 °F /  13.1 °C 30in /  1015.9hPa NW 0.9mph /  1.4km/h 2mph /  3.2km/h 89% 0in /  0.0mm 51 W/m2
08:42 58.6 °F /  14.8 °C 55.4 °F /  13 °C 30in /  1015.9hPa NNW 0.9mph /  1.4km/h 2mph /  3.2km/h 89% 0in /  0.0mm 72 W/m2
08:47 58.6 °F /  14.8 °C 55.4 °F /  13 °C 30in /  1015.9hPa NW 0.9mph /  1.4km/h 4mph /  6.4km/h 89% 0in /  0.0mm 58 W/m2
08:52 58.6 °F /  14.8 °C 55 °F /  12.8 °C 30in /  1015.9hPa NW 0.9mph /  1.4km/h 2mph /  3.2km/h 88% 0in /  0.0mm 70 W/m2
08:57 59 °F /  15 °C 55.2 °F /  12.9 °C 30in /  1015.9hPa NNE 0.9mph /  1.4km/h 3mph /  4.8km/h 87% 0in /  0.0mm 211 W/m2
09:02 59.2 °F /  15.1 °C 55 °F /  12.8 °C 30in /  1015.9hPa NW 2.9mph /  4.7km/h 4mph /  6.4km/h 86% 0in /  0.0mm 232 W/m2
09:07 59.5 °F /  15.3 °C 55.4 °F /  13 °C 30in /  1015.9hPa NW 2mph /  3.2km/h 4mph /  6.4km/h 86% 0in /  0.0mm 244 W/m2
09:12 59.5 °F /  15.3 °C 54.7 °F /  12.6 °C 30in /  1015.9hPa WSW 2.9mph /  4.7km/h 4mph /  6.4km/h 84% 0in /  0.0mm 255 W/m2
09:17 59.7 °F /  15.4 °C 54.5 °F /  12.5 °C 30in /  1015.9hPa ENE 2.9mph /  4.7km/h 3mph /  4.8km/h 83% 0in /  0.0mm 264 W/m2
09:22 60.3 °F /  15.7 °C 55.4 °F /  13 °C 30in /  1016.3hPa Calm   1mph /  1.6km/h 84% 0in /  0.0mm 279 W/m2
09:27 60.4 °F /  15.8 °C 55.2 °F /  12.9 °C 30in /  1016.3hPa Calm   2mph /  3.2km/h 83% 0in /  0.0mm 290 W/m2
09:32 61 °F /  16.1 °C 55 °F /  12.8 °C 30in /  1016.3hPa ENE 0.9mph /  1.4km/h 3mph /  4.8km/h 81% 0in /  0.0mm 292 W/m2
09:37 61.5 °F /  16.4 °C 55.2 °F /  12.9 °C 30in /  1016.3hPa ENE 2mph /  3.2km/h 3mph /  4.8km/h 80% 0in /  0.0mm 320 W/m2
09:42 61.9 °F /  16.6 °C 55.2 °F /  12.9 °C 30in /  1016.3hPa Calm   4mph /  6.4km/h 79% 0in /  0.0mm 316 W/m2
09:47 62.1 °F /  16.7 °C 55.4 °F /  13 °C 30in /  1016.3hPa NE 2mph /  3.2km/h 3mph /  4.8km/h 79% 0in /  0.0mm 246 W/m2
09:52 62.2 °F /  16.8 °C 54.9 °F /  12.7 °C 30in /  1016.6hPa NE 0.9mph /  1.4km/h 3mph /  4.8km/h 77% 0in /  0.0mm 301 W/m2
09:57 62.2 °F /  16.8 °C 54.9 °F /  12.7 °C 30in /  1016.6hPa NNW 0.9mph /  1.4km/h 4mph /  6.4km/h 77% 0in /  0.0mm 378 W/m2
10:02 62.1 °F /  16.7 °C 54.7 °F /  12.6 °C 30in /  1016.6hPa North 2.9mph /  4.7km/h 5mph /  8km/h 77% 0in /  0.0mm 67 W/m2
10:07 61.9 °F /  16.6 °C 54.9 °F /  12.7 °C 30in /  1016.6hPa West 4mph /  6.4km/h 5mph /  8km/h 78% 0in /  0.0mm 394 W/m2
10:12 61.7 °F /  16.5 °C 54.5 °F /  12.5 °C 30in /  1016.6hPa NE 0.9mph /  1.4km/h 3mph /  4.8km/h 77% 0in /  0.0mm 130 W/m2
10:17 61.9 °F /  16.6 °C 54.7 °F /  12.6 °C 30in /  1016.9hPa WSW 0.9mph /  1.4km/h 6mph /  9.7km/h 77% 0in /  0.0mm 362 W/m2
10:22 62.1 °F /  16.7 °C 54.7 °F /  12.6 °C 30in /  1016.9hPa NW 8.1mph /  13km/h 8mph /  12.9km/h 77% 0in /  0.0mm 455 W/m2
10:27 61.9 °F /  16.6 °C 54.7 °F /  12.6 °C 30in /  1016.9hPa NNE 2.9mph /  4.7km/h 5mph /  8km/h 77% 0in /  0.0mm 512 W/m2
10:32 62.2 °F /  16.8 °C 54.5 °F /  12.5 °C 30in /  1016.9hPa NNW 8mph /  12.9km/h 8mph /  12.9km/h 76% 0in /  0.0mm 547 W/m2
10:37 62.6 °F /  17 °C 54.9 °F /  12.7 °C 30in /  1016.9hPa WNW 0.9mph /  1.4km/h 8mph /  12.9km/h 76% 0in /  0.0mm 552 W/m2
10:42 62.4 °F /  16.9 °C 54.3 °F /  12.4 °C 30in /  1016.9hPa West 0.9mph /  1.4km/h 4mph /  6.4km/h 75% 0in /  0.0mm 200 W/m2
10:47 62.4 °F /  16.9 °C 54.7 °F /  12.6 °C 30in /  1016.9hPa ESE 2.9mph /  4.7km/h 5mph /  8km/h 76% 0in /  0.0mm 619 W/m2
10:52 63 °F /  17.2 °C 54.9 °F /  12.7 °C 30in /  1016.9hPa East 2mph /  3.2km/h 9mph /  14.5km/h 75% 0in /  0.0mm 628 W/m2
10:57 63.5 °F /  17.5 °C 55 °F /  12.8 °C 30in /  1016.9hPa NE 0.9mph /  1.4km/h 4mph /  6.4km/h 74% 0in /  0.0mm 661 W/m2
11:02 64 °F /  17.8 °C 54.9 °F /  12.7 °C 30in /  1016.9hPa ESE 4.9mph /  7.9km/h 7mph /  11.3km/h 72% 0in /  0.0mm 668 W/m2
11:07 64.2 °F /  17.9 °C 55 °F /  12.8 °C 30in /  1016.9hPa NNW 2.9mph /  4.7km/h 7mph /  11.3km/h 72% 0in /  0.0mm 193 W/m2
11:12 63.3 °F /  17.4 °C 54.1 °F /  12.3 °C 30in /  1016.9hPa West 2mph /  3.2km/h 6mph /  9.7km/h 72% 0in /  0.0mm 404 W/m2
11:17 62.8 °F /  17.1 °C 54.3 °F /  12.4 °C 30in /  1016.9hPa NE 0.9mph /  1.4km/h 3mph /  4.8km/h 74% 0in /  0.0mm 116 W/m2
11:22 62.4 °F /  16.9 °C 54.3 °F /  12.4 °C 30in /  1016.9hPa WNW 0.9mph /  1.4km/h 6mph /  9.7km/h 75% 0in /  0.0mm 127 W/m2
11:27 62.1 °F /  16.7 °C 54.3 °F /  12.4 °C 30in /  1016.9hPa WNW 2.9mph /  4.7km/h 4mph /  6.4km/h 76% 0in /  0.0mm 130 W/m2
11:32 61.9 °F /  16.6 °C 54.3 °F /  12.4 °C 30in /  1016.9hPa WNW 0.9mph /  1.4km/h 6mph /  9.7km/h 76% 0in /  0.0mm 151 W/m2
11:37 62.2 °F /  16.8 °C 54.5 °F /  12.5 °C 30in /  1016.9hPa WSW 4.9mph /  7.9km/h 6mph /  9.7km/h 76% 0in /  0.0mm 301 W/m2
11:42 62.8 °F /  17.1 °C 55 °F /  12.8 °C 30in /  1016.9hPa NNW 2mph /  3.2km/h 9mph /  14.5km/h 76% 0in /  0.0mm 703 W/m2
11:47 63.3 °F /  17.4 °C 54.9 °F /  12.7 °C 30in /  1016.9hPa WSW 2mph /  3.2km/h 4mph /  6.4km/h 74% 0in /  0.0mm 675 W/m2
11:52 64 °F /  17.8 °C 55.2 °F /  12.9 °C 30in /  1016.9hPa SW 0.9mph /  1.4km/h 6mph /  9.7km/h 73% 0in /  0.0mm 747 W/m2
11:57 64.4 °F /  18 °C 55.2 °F /  12.9 °C 30in /  1016.9hPa ENE 8.1mph /  13km/h 8mph /  12.9km/h 72% 0in /  0.0mm 791 W/m2
12:02 64.6 °F /  18.1 °C 54.5 °F /  12.5 °C 30in /  1016.9hPa ESE 0.9mph /  1.4km/h 2mph /  3.2km/h 70% 0in /  0.0mm 258 W/m2
12:07 64.6 °F /  18.1 °C 55 °F /  12.8 °C 30in /  1016.9hPa West 4mph /  6.4km/h 5mph /  8km/h 71% 0in /  0.0mm 202 W/m2
12:12 64.2 °F /  17.9 °C 54.3 °F /  12.4 °C 30in /  1016.9hPa WNW 0.9mph /  1.4km/h 6mph /  9.7km/h 70% 0in /  0.0mm 206 W/m2
12:17 64.2 °F /  17.9 °C 54.3 °F /  12.4 °C 30in /  1016.9hPa NE 2.9mph /  4.7km/h 7mph /  11.3km/h 70% 0in /  0.0mm 206 W/m2
12:23 64.8 °F /  18.2 °C 55.2 °F /  12.9 °C 30in /  1016.9hPa ESE 2mph /  3.2km/h 6mph /  9.7km/h 71% 0in /  0.0mm 199 W/m2
12:28 64.8 °F /  18.2 °C 54.3 °F /  12.4 °C 30in /  1016.9hPa SE 2mph /  3.2km/h 4mph /  6.4km/h 69% 0in /  0.0mm 257 W/m2
12:33 64.9 °F /  18.3 °C 54.9 °F /  12.7 °C 30in /  1016.9hPa West 2mph /  3.2km/h 5mph /  8km/h 70% 0in /  0.0mm 712 W/m2
12:38 65.1 °F /  18.4 °C 54.7 °F /  12.6 °C 30in /  1016.9hPa West 2mph /  3.2km/h 5mph /  8km/h 69% 0in /  0.0mm 751 W/m2
12:43 65.5 °F /  18.6 °C 55 °F /  12.8 °C 30in /  1016.6hPa Calm   3mph /  4.8km/h 69% 0in /  0.0mm 163 W/m2
12:48 65.7 °F /  18.7 °C 54.3 °F /  12.4 °C 30in /  1016.6hPa ENE 0.9mph /  1.4km/h 4mph /  6.4km/h 67% 0in /  0.0mm 744 W/m2
12:53 66 °F /  18.9 °C 54.7 °F /  12.6 °C 30in /  1016.9hPa ENE 4.9mph /  7.9km/h 5mph /  8km/h 67% 0in /  0.0mm 793 W/m2
12:58 66.4 °F /  19.1 °C 54.7 °F /  12.6 °C 30in /  1016.9hPa ESE 2.9mph /  4.7km/h 4mph /  6.4km/h 66% 0in /  0.0mm 874 W/m2
13:03 66.6 °F /  19.2 °C 54.9 °F /  12.7 °C 30in /  1016.9hPa ESE 0.9mph /  1.4km/h 6mph /  9.7km/h 66% 0in /  0.0mm 916 W/m2
13:08 66.7 °F /  19.3 °C 54.7 °F /  12.6 °C 30in /  1016.6hPa NE 2mph /  3.2km/h 4mph /  6.4km/h 65% 0in /  0.0mm 243 W/m2
13:13 66.6 °F /  19.2 °C 54.9 °F /  12.7 °C 30in /  1016.6hPa Calm   6mph /  9.7km/h 66% 0in /  0.0mm 248 W/m2
13:18 66.4 °F /  19.1 °C 54.7 °F /  12.6 °C 30in /  1016.6hPa West 2.9mph /  4.7km/h 7mph /  11.3km/h 66% 0in /  0.0mm 432 W/m2
13:23 66 °F /  18.9 °C 54.7 °F /  12.6 °C 30in /  1016.6hPa Calm   1mph /  1.6km/h 67% 0in /  0.0mm 246 W/m2
13:28 66 °F /  18.9 °C 54.7 °F /  12.6 °C 30in /  1016.6hPa Calm   1mph /  1.6km/h 67% 0in /  0.0mm 244 W/m2
13:33 66 °F /  18.9 °C 55.2 °F /  12.9 °C 30in /  1016.6hPa Calm   1mph /  1.6km/h 68% 0in /  0.0mm 251 W/m2
13:38 66.4 °F /  19.1 °C 55.9 °F /  13.3 °C 30in /  1016.9hPa Calm   1mph /  1.6km/h 69% 0in /  0.0mm 809 W/m2
13:43 66.6 °F /  19.2 °C 55.2 °F /  12.9 °C 30in /  1016.9hPa NE 0.9mph /  1.4km/h 2mph /  3.2km/h 67% 0in /  0.0mm 367 W/m2
13:48 66.6 °F /  19.2 °C 54.9 °F /  12.7 °C 30in /  1016.9hPa NNE 0.9mph /  1.4km/h 4mph /  6.4km/h 66% 0in /  0.0mm 221 W/m2
13:53 66.6 °F /  19.2 °C 54.9 °F /  12.7 °C 30in /  1016.9hPa SW 0.9mph /  1.4km/h 2mph /  3.2km/h 66% 0in /  0.0mm 174 W/m2
13:58 66.4 °F /  19.1 °C 54.7 °F /  12.6 °C 30in /  1016.9hPa Calm   3mph /  4.8km/h 66% 0in /  0.0mm 171 W/m2
14:03 66.4 °F /  19.1 °C 54.7 °F /  12.6 °C 30in /  1016.9hPa Calm   3mph /  4.8km/h 66% 0in /  0.0mm 185 W/m2
14:08 66.4 °F /  19.1 °C 54.3 °F /  12.4 °C 30in /  1016.9hPa WNW 2mph /  3.2km/h 2mph /  3.2km/h 65% 0in /  0.0mm 230 W/m2
14:13 66 °F /  18.9 °C 54.7 °F /  12.6 °C 30in /  1016.9hPa NNW 0.9mph /  1.4km/h 2mph /  3.2km/h 67% 0in /  0.0mm 329 W/m2
14:18 66 °F /  18.9 °C 54.7 °F /  12.6 °C 30in /  1016.9hPa West 2mph /  3.2km/h 7mph /  11.3km/h 67% 0in /  0.0mm 199 W/m2
14:23 65.8 °F /  18.8 °C 54.5 °F /  12.5 °C 30in /  1016.9hPa Calm   3mph /  4.8km/h 67% 0in /  0.0mm 121 W/m2
14:28 65.7 °F /  18.7 °C 54.9 °F /  12.7 °C 30in /  1016.6hPa NW 2.9mph /  4.7km/h 7mph /  11.3km/h 68% 0in /  0.0mm 100 W/m2
14:33 65.5 °F /  18.6 °C 54.3 °F /  12.4 °C 30in /  1016.6hPa WNW 0.9mph /  1.4km/h 7mph /  11.3km/h 67% 0in /  0.0mm 104 W/m2
14:38 65.5 °F /  18.6 °C 54.7 °F /  12.6 °C 30in /  1016.6hPa NNW 0.9mph /  1.4km/h 3mph /  4.8km/h 68% 0in /  0.0mm 130 W/m2
14:43 65.5 °F /  18.6 °C 54.7 °F /  12.6 °C 30in /  1016.6hPa West 2.9mph /  4.7km/h 7mph /  11.3km/h 68% 0in /  0.0mm 183 W/m2
14:48 65.7 °F /  18.7 °C 54.9 °F /  12.7 °C 30in /  1016.6hPa Calm   1mph /  1.6km/h 68% 0in /  0.0mm 241 W/m2
14:53 65.8 °F /  18.8 °C 55 °F /  12.8 °C 30in /  1016.6hPa West 2.9mph /  4.7km/h 3mph /  4.8km/h 68% 0in /  0.0mm 272 W/m2
14:58 65.8 °F /  18.8 °C 54.1 °F /  12.3 °C 30in /  1016.6hPa Calm   2mph /  3.2km/h 66% 0in /  0.0mm 283 W/m2
15:03 66 °F /  18.9 °C 54.7 °F /  12.6 °C 30in /  1016.6hPa NNW 0.9mph /  1.4km/h 4mph /  6.4km/h 67% 0in /  0.0mm 281 W/m2
15:08 66.2 °F /  19 °C 54.5 °F /  12.5 °C 30in /  1016.6hPa West 0.9mph /  1.4km/h 3mph /  4.8km/h 66% 0in /  0.0mm 287 W/m2
15:13 66.2 °F /  19 °C 54.5 °F /  12.5 °C 30in /  1016.3hPa ENE 2mph /  3.2km/h 4mph /  6.4km/h 66% 0in /  0.0mm 306 W/m2
15:18 66.4 °F /  19.1 °C 55 °F /  12.8 °C 30in /  1016.3hPa NW 0.9mph /  1.4km/h 3mph /  4.8km/h 67% 0in /  0.0mm 179 W/m2
15:23 66.4 °F /  19.1 °C 55 °F /  12.8 °C 30in /  1016.3hPa NW 0.9mph /  1.4km/h 6mph /  9.7km/h 67% 0in /  0.0mm 135 W/m2
15:28 66.2 °F /  19 °C 54.5 °F /  12.5 °C 30in /  1016.3hPa WNW 2mph /  3.2km/h 7mph /  11.3km/h 66% 0in /  0.0mm 139 W/m2
15:33 65.8 °F /  18.8 °C 54.5 °F /  12.5 °C 30in /  1016.6hPa NW 4.9mph /  7.9km/h 5mph /  8km/h 67% 0in /  0.0mm 156 W/m2
15:38 65.8 °F /  18.8 °C 54.5 °F /  12.5 °C 30in /  1016.6hPa WNW 2mph /  3.2km/h 5mph /  8km/h 67% 0in /  0.0mm 171 W/m2
15:43 65.8 °F /  18.8 °C 55 °F /  12.8 °C 30in /  1016.3hPa NNW 2mph /  3.2km/h 3mph /  4.8km/h 68% 0in /  0.0mm 186 W/m2
15:48 66 °F /  18.9 °C 55.2 °F /  12.9 °C 30in /  1016.3hPa NW 2mph /  3.2km/h 3mph /  4.8km/h 68% 0in /  0.0mm 192 W/m2
15:53 65.8 °F /  18.8 °C 55 °F /  12.8 °C 30in /  1016.6hPa WSW 4.9mph /  7.9km/h 7mph /  11.3km/h 68% 0in /  0.0mm 190 W/m2
15:58 65.8 °F /  18.8 °C 55 °F /  12.8 °C 30in /  1016.6hPa NW 2mph /  3.2km/h 4mph /  6.4km/h 68% 0in /  0.0mm 163 W/m2
16:03 65.8 °F /  18.8 °C 55 °F /  12.8 °C 30in /  1016.6hPa West 4mph /  6.4km/h 11mph /  17.7km/h 68% 0in /  0.0mm 125 W/m2
16:08 65.5 °F /  18.6 °C 54.7 °F /  12.6 °C 30in /  1016.6hPa West 2.9mph /  4.7km/h 7mph /  11.3km/h 68% 0in /  0.0mm 113 W/m2
16:13 65.1 °F /  18.4 °C 54.7 °F /  12.6 °C 30in /  1016.6hPa West 0.9mph /  1.4km/h 6mph /  9.7km/h 69% 0in /  0.0mm 107 W/m2
16:18 65.1 °F /  18.4 °C 55 °F /  12.8 °C 30in /  1016.6hPa NNW 4mph /  6.4km/h 4mph /  6.4km/h 70% 0in /  0.0mm 111 W/m2
16:23 65.3 °F /  18.5 °C 54.9 °F /  12.7 °C 30in /  1016.3hPa WNW 2.9mph /  4.7km/h 4mph /  6.4km/h 69% 0in /  0.0mm 109 W/m2
16:28 65.1 °F /  18.4 °C 54.3 °F /  12.4 °C 30in /  1016.6hPa West 2.9mph /  4.7km/h 6mph /  9.7km/h 68% 0in /  0.0mm 105 W/m2
16:33 64.9 °F /  18.3 °C 54.1 °F /  12.3 °C 30in /  1016.3hPa WSW 2.9mph /  4.7km/h 7mph /  11.3km/h 68% 0in /  0.0mm 105 W/m2
16:38 64.9 °F /  18.3 °C 54.1 °F /  12.3 °C 30in /  1016.6hPa WNW 4mph /  6.4km/h 6mph /  9.7km/h 68% 0in /  0.0mm 102 W/m2
16:43 64.9 °F /  18.3 °C 54.1 °F /  12.3 °C 30in /  1016.3hPa NW 0.9mph /  1.4km/h 4mph /  6.4km/h 68% 0in /  0.0mm 128 W/m2
16:48 65.1 °F /  18.4 °C 54.7 °F /  12.6 °C 30in /  1016.3hPa WNW 0.9mph /  1.4km/h 3mph /  4.8km/h 69% 0in /  0.0mm 141 W/m2
16:53 65.1 °F /  18.4 °C 54.3 °F /  12.4 °C 30in /  1016.3hPa Calm   1mph /  1.6km/h 68% 0in /  0.0mm 155 W/m2
16:58 65.5 °F /  18.6 °C 55 °F /  12.8 °C 30in /  1016.3hPa Calm   2mph /  3.2km/h 69% 0in /  0.0mm 190 W/m2
17:03 65.8 °F /  18.8 °C 55.4 °F /  13 °C 30in /  1016.3hPa West 0.9mph /  1.4km/h 2mph /  3.2km/h 69% 0in /  0.0mm 188 W/m2
17:08 65.8 °F /  18.8 °C 55 °F /  12.8 °C 30in /  1016.3hPa West 2mph /  3.2km/h 2mph /  3.2km/h 68% 0in /  0.0mm 165 W/m2
17:13 65.8 °F /  18.8 °C 54.5 °F /  12.5 °C 30in /  1016.3hPa NNW 0.9mph /  1.4km/h 6mph /  9.7km/h 67% 0in /  0.0mm 227 W/m2
17:18 66.2 °F /  19 °C 54.9 °F /  12.7 °C 30in /  1016.3hPa West 0.9mph /  1.4km/h 2mph /  3.2km/h 67% 0in /  0.0mm 276 W/m2
17:23 66.7 °F /  19.3 °C 55 °F /  12.8 °C 30in /  1016.3hPa NNE 0.9mph /  1.4km/h 3mph /  4.8km/h 66% 0in /  0.0mm 380 W/m2
17:28 67.1 °F /  19.5 °C 54.1 °F /  12.3 °C 30in /  1016.3hPa WNW 2.9mph /  4.7km/h 9mph /  14.5km/h 63% 0in /  0.0mm 348 W/m2
17:33 66.9 °F /  19.4 °C 54 °F /  12.2 °C 30in /  1016.3hPa WNW 0.9mph /  1.4km/h 3mph /  4.8km/h 63% 0in /  0.0mm 211 W/m2
17:38 66.7 °F /  19.3 °C 54.1 °F /  12.3 °C 30in /  1016.3hPa WNW 4mph /  6.4km/h 6mph /  9.7km/h 64% 0in /  0.0mm 315 W/m2
17:44 66.7 °F /  19.3 °C 53.8 °F /  12.1 °C 30in /  1016.3hPa NNW 2mph /  3.2km/h 7mph /  11.3km/h 63% 0in /  0.0mm 332 W/m2
17:49 66.9 °F /  19.4 °C 54 °F /  12.2 °C 30in /  1016.3hPa WNW 2.9mph /  4.7km/h 4mph /  6.4km/h 63% 0in /  0.0mm 287 W/m2
17:54 66.9 °F /  19.4 °C 54.3 °F /  12.4 °C 30in /  1016.3hPa West 2.9mph /  4.7km/h 4mph /  6.4km/h 64% 0in /  0.0mm 251 W/m2
17:59 66.9 °F /  19.4 °C 53.4 °F /  11.9 °C 30in /  1016.3hPa NW 0.9mph /  1.4km/h 4mph /  6.4km/h 62% 0in /  0.0mm 141 W/m2
18:04 67.1 °F /  19.5 °C 53.6 °F /  12 °C 30in /  1016.3hPa NE 0.9mph /  1.4km/h 3mph /  4.8km/h 62% 0in /  0.0mm 139 W/m2
18:09 67.3 °F /  19.6 °C 53.8 °F /  12.1 °C 30in /  1016.3hPa North 4mph /  6.4km/h 4mph /  6.4km/h 62% 0in /  0.0mm 104 W/m2
18:14 67.5 °F /  19.7 °C 54 °F /  12.2 °C 30in /  1016.3hPa ENE 2mph /  3.2km/h 2mph /  3.2km/h 62% 0in /  0.0mm 220 W/m2
18:19 67.5 °F /  19.7 °C 54 °F /  12.2 °C 30in /  1016.3hPa WNW 2mph /  3.2km/h 3mph /  4.8km/h 62% 0in /  0.0mm 202 W/m2
18:24 67.8 °F /  19.9 °C 53.4 °F /  11.9 °C 30in /  1016.3hPa ESE 2mph /  3.2km/h 3mph /  4.8km/h 60% 0in /  0.0mm 211 W/m2
18:29 67.8 °F /  19.9 °C 54 °F /  12.2 °C 30in /  1016.3hPa ESE 0.9mph /  1.4km/h 3mph /  4.8km/h 61% 0in /  0.0mm 181 W/m2
18:34 67.8 °F /  19.9 °C 53.4 °F /  11.9 °C 30in /  1016.3hPa ESE 2mph /  3.2km/h 3mph /  4.8km/h 60% 0in /  0.0mm 162 W/m2
18:39 67.8 °F /  19.9 °C 54 °F /  12.2 °C 30in /  1016.3hPa Calm   2mph /  3.2km/h 61% 0in /  0.0mm 62 W/m2
18:44 67.5 °F /  19.7 °C 53.6 °F /  12 °C 30in /  1016.3hPa SE 0.9mph /  1.4km/h 3mph /  4.8km/h 61% 0in /  0.0mm 123 W/m2
18:49 67.3 °F /  19.6 °C 55.6 °F /  13.1 °C 30in /  1016.3hPa Calm     66% 0in /  0.0mm 49 W/m2
18:54 66.6 °F /  19.2 °C 56.1 °F /  13.4 °C 30in /  1016.3hPa SSE 0.9mph /  1.4km/h 1mph /  1.6km/h 69% 0in /  0.0mm 40 W/m2
18:59 65.8 °F /  18.8 °C 54.5 °F /  12.5 °C 30in /  1016.3hPa Calm   2mph /  3.2km/h 67% 0in /  0.0mm 40 W/m2
19:04 65.3 °F /  18.5 °C 54.9 °F /  12.7 °C 30in /  1016.3hPa Calm     69% 0in /  0.0mm 39 W/m2
19:09 64.9 °F /  18.3 °C 55.4 °F /  13 °C 30in /  1016.3hPa WNW 0.9mph /  1.4km/h 2mph /  3.2km/h 71% 0in /  0.0mm 26 W/m2
19:14 64.6 °F /  18.1 °C 54.1 °F /  12.3 °C 30in /  1016.3hPa Calm   3mph /  4.8km/h 69% 0in /  0.0mm 23 W/m2
19:19 64.2 °F /  17.9 °C 54.7 °F /  12.6 °C 30in /  1016.3hPa West 0.9mph /  1.4km/h 1mph /  1.6km/h 71% 0in /  0.0mm 21 W/m2
19:24 63.9 °F /  17.7 °C 54.7 °F /  12.6 °C 30in /  1016.3hPa SW 0.9mph /  1.4km/h 1mph /  1.6km/h 72% 0in /  0.0mm 14 W/m2
19:29 63.5 °F /  17.5 °C 54.3 °F /  12.4 °C 30in /  1016.3hPa SW 0.9mph /  1.4km/h 2mph /  3.2km/h 72% 0in /  0.0mm 11 W/m2
19:34 63.1 °F /  17.3 °C 54.3 °F /  12.4 °C 30in /  1016.3hPa SW 0.9mph /  1.4km/h 4mph /  6.4km/h 73% 0in /  0.0mm 7 W/m2
19:39 63 °F /  17.2 °C 54.1 °F /  12.3 °C 30in /  1016.3hPa WSW 2mph /  3.2km/h 3mph /  4.8km/h 73% 0in /  0.0mm 5 W/m2
19:44 62.8 °F /  17.1 °C 54.3 °F /  12.4 °C 30in /  1016.3hPa WNW 2mph /  3.2km/h 3mph /  4.8km/h 74% 0in /  0.0mm 5 W/m2
19:49 62.8 °F /  17.1 °C 54.3 °F /  12.4 °C 30in /  1016.3hPa West 2mph /  3.2km/h 2mph /  3.2km/h 74% 0in /  0.0mm 0 W/m2
19:54 62.4 °F /  16.9 °C 54.3 °F /  12.4 °C 30in /  1016.3hPa West 2mph /  3.2km/h 3mph /  4.8km/h 75% 0in /  0.0mm 0 W/m2
19:59 62.2 °F /  16.8 °C 54.1 °F /  12.3 °C 30in /  1016.3hPa West 2.9mph /  4.7km/h 4mph /  6.4km/h 75% 0in /  0.0mm 0 W/m2
20:04 62.1 °F /  16.7 °C 54 °F /  12.2 °C 30in /  1016.6hPa West 2mph /  3.2km/h 3mph /  4.8km/h 75% 0in /  0.0mm 0 W/m2
20:09 62.1 °F /  16.7 °C 54.3 °F /  12.4 °C 30in /  1016.6hPa WSW 2mph /  3.2km/h 4mph /  6.4km/h 76% 0in /  0.0mm 0 W/m2
20:14 61.9 °F /  16.6 °C 54.3 °F /  12.4 °C 30in /  1016.6hPa West 2.9mph /  4.7km/h 4mph /  6.4km/h 76% 0in /  0.0mm 0 W/m2
20:19 61.9 °F /  16.6 °C 54.3 °F /  12.4 °C 30in /  1016.6hPa West 0.9mph /  1.4km/h 2mph /  3.2km/h 76% 0in /  0.0mm 0 W/m2
20:24 61.9 °F /  16.6 °C 54.3 °F /  12.4 °C 30in /  1016.6hPa Calm   4mph /  6.4km/h 76% 0in /  0.0mm 0 W/m2
20:29 61.9 °F /  16.6 °C 54.7 °F /  12.6 °C 30in /  1016.6hPa Calm   2mph /  3.2km/h 77% 0in /  0.0mm 0 W/m2
20:34 61.9 °F /  16.6 °C 54.7 °F /  12.6 °C 30in /  1016.6hPa WSW 2mph /  3.2km/h 3mph /  4.8km/h 77% 0in /  0.0mm 0 W/m2
20:39 61.7 °F /  16.5 °C 54.9 °F /  12.7 °C 30in /  1016.6hPa WSW 2mph /  3.2km/h 2mph /  3.2km/h 78% 0in /  0.0mm 0 W/m2
20:44 61.5 °F /  16.4 °C 54.7 °F /  12.6 °C 30in /  1016.6hPa Calm   2mph /  3.2km/h 78% 0in /  0.0mm 0 W/m2
20:49 61.5 °F /  16.4 °C 54.7 °F /  12.6 °C 30in /  1016.6hPa West 0.9mph /  1.4km/h 4mph /  6.4km/h 78% 0in /  0.0mm 0 W/m2
20:54 61.3 °F /  16.3 °C 54.5 °F /  12.5 °C 30in /  1016.9hPa West 0.9mph /  1.4km/h 2mph /  3.2km/h 78% 0in /  0.0mm 0 W/m2
20:59 61.3 °F /  16.3 °C 54.9 °F /  12.7 °C 30in /  1016.9hPa Calm   4mph /  6.4km/h 79% 0in /  0.0mm 0 W/m2
21:04 61.3 °F /  16.3 °C 54.9 °F /  12.7 °C 30in /  1016.9hPa Calm   1mph /  1.6km/h 79% 0in /  0.0mm 0 W/m2
21:09 61.3 °F /  16.3 °C 54.9 °F /  12.7 °C 30in /  1016.9hPa Calm   1mph /  1.6km/h 79% 0in /  0.0mm 0 W/m2
21:14 61.3 °F /  16.3 °C 55 °F /  12.8 °C 30in /  1016.9hPa Calm   1mph /  1.6km/h 80% 0in /  0.0mm 0 W/m2
21:19 61.2 °F /  16.2 °C 54.9 °F /  12.7 °C 30in /  1016.9hPa West 0.9mph /  1.4km/h 1mph /  1.6km/h 80% 0in /  0.0mm 0 W/m2
21:24 61.2 °F /  16.2 °C 54.9 °F /  12.7 °C 30in /  1017.3hPa Calm   1mph /  1.6km/h 80% 0in /  0.0mm 0 W/m2
21:29 61.2 °F /  16.2 °C 54.9 °F /  12.7 °C 30in /  1016.9hPa West 2mph /  3.2km/h 2mph /  3.2km/h 80% 0in /  0.0mm 0 W/m2
21:34 61.2 °F /  16.2 °C 55.2 °F /  12.9 °C 30in /  1017.3hPa Calm     81% 0in /  0.0mm 0 W/m2
21:39 61 °F /  16.1 °C 55 °F /  12.8 °C 30in /  1017.3hPa Calm     81% 0in /  0.0mm 0 W/m2
21:44 61 °F /  16.1 °C 55.4 °F /  13 °C 30in /  1017.3hPa Calm     82% 0in /  0.0mm 0 W/m2
21:49 60.8 °F /  16 °C 55.2 °F /  12.9 °C 30in /  1017.3hPa Calm     82% 0in /  0.0mm 0 W/m2
21:54 60.6 °F /  15.9 °C 55.4 °F /  13 °C 30in /  1017.3hPa Calm     83% 0in /  0.0mm 0 W/m2
21:59 60.4 °F /  15.8 °C 55.2 °F /  12.9 °C 30in /  1017.3hPa Calm     83% 0in /  0.0mm 0 W/m2
22:04 60.3 °F /  15.7 °C 55 °F /  12.8 °C 30in /  1017.3hPa Calm     83% 0in /  0.0mm 0 W/m2
22:09 59.9 °F /  15.5 °C 54.7 °F /  12.6 °C 30in /  1017.3hPa Calm     83% 0in /  0.0mm 0 W/m2
22:14 59.5 °F /  15.3 °C 54.3 °F /  12.4 °C 30in /  1017.3hPa Calm     83% 0in /  0.0mm 0 W/m2
22:19 59.4 °F /  15.2 °C 54.5 °F /  12.5 °C 30in /  1017.3hPa Calm     84% 0in /  0.0mm 0 W/m2
22:24 59 °F /  15 °C 54.5 °F /  12.5 °C 30in /  1017.3hPa Calm     85% 0in /  0.0mm 0 W/m2
22:29 58.6 °F /  14.8 °C 54.1 °F /  12.3 °C 30in /  1017.3hPa Calm     85% 0in /  0.0mm 0 W/m2
22:34 58.3 °F /  14.6 °C 54.1 °F /  12.3 °C 30in /  1017.3hPa Calm     86% 0in /  0.0mm 0 W/m2
22:39 57.7 °F /  14.3 °C 53.6 °F /  12 °C 30in /  1017.3hPa Calm     86% 0in /  0.0mm 0 W/m2
22:44 57.6 °F /  14.2 °C 53.8 °F /  12.1 °C 30in /  1017.3hPa Calm     87% 0in /  0.0mm 0 W/m2
22:49 57.4 °F /  14.1 °C 53.8 °F /  12.1 °C 30in /  1017.3hPa Calm     88% 0in /  0.0mm 0 W/m2
22:54 57 °F /  13.9 °C 53.4 °F /  11.9 °C 30in /  1017.3hPa Calm     88% 0in /  0.0mm 0 W/m2
22:59 56.8 °F /  13.8 °C 53.6 °F /  12 °C 30in /  1017.3hPa Calm     89% 0in /  0.0mm 0 W/m2
23:04 56.7 °F /  13.7 °C 53.4 °F /  11.9 °C 30in /  1017.3hPa Calm     89% 0in /  0.0mm 0 W/m2
23:09 56.7 °F /  13.7 °C 53.4 °F /  11.9 °C 30in /  1017.3hPa Calm     89% 0in /  0.0mm 0 W/m2
23:14 56.3 °F /  13.5 °C 53.4 °F /  11.9 °C 30in /  1017.3hPa Calm     90% 0in /  0.0mm 0 W/m2
23:19 56.1 °F /  13.4 °C 53.2 °F /  11.8 °C 30in /  1017.3hPa Calm     90% 0in /  0.0mm 0 W/m2
23:24 55.9 °F /  13.3 °C 53.4 °F /  11.9 °C 30in /  1017.3hPa Calm     91% 0in /  0.0mm 0 W/m2
23:30 55.9 °F /  13.3 °C 53.4 °F /  11.9 °C 30in /  1017.3hPa Calm     91% 0in /  0.0mm 0 W/m2
23:35 55.8 °F /  13.2 °C 53.2 °F /  11.8 °C 30in /  1017.3hPa Calm     91% 0in /  0.0mm 0 W/m2
23:40 55.6 °F /  13.1 °C 53.1 °F /  11.7 °C 30.1in /  1017.6hPa Calm     91% 0in /  0.0mm 0 W/m2
23:45 55.6 °F /  13.1 °C 53.2 °F /  11.8 °C 30in /  1017.3hPa Calm     92% 0in /  0.0mm 0 W/m2
23:50 55.6 °F /  13.1 °C 53.2 °F /  11.8 °C 30.1in /  1017.6hPa Calm     92% 0in /  0.0mm 0 W/m2
23:55 55.4 °F /  13 °C 53.1 °F /  11.7 °C 30in /  1017.3hPa Calm     92% 0in /  0.0mm 0 W/m2
Juneau County Weather
Compliments of Weather Underground - 4 mb